Time;durP1;ratioP1;P1;durP2;ratioP2;P2;SDS_P1;SDS_P2;PMS_P1;PMS_P2;Temp;Humidity;BMP_temperature;BMP_pressure;BME280_temperature;BME280_humidity;BME280_pressure;Samples;Min_cycle;Max_cycle;Signal;HPM_P1;HPM_P2
2023/04/30 00:00:14;;;;;;;8.07;7.28;;;9.80;99.90;;;;;;2093698;28;20482;-72
2023/04/30 00:01:14;;;;;;;8.60;6.88;;;9.80;99.90;;;;;;2095568;28;20099;-72
2023/04/30 00:02:15;;;;;;;11.65;8.27;;;9.80;99.90;;;;;;2095099;28;20031;-72
2023/04/30 00:03:15;;;;;;;9.23;7.82;;;9.80;99.90;;;;;;2093304;28;20035;-72
2023/04/30 00:04:16;;;;;;;9.48;8.48;;;9.80;99.90;;;;;;2094934;28;20035;-73
2023/04/30 00:05:17;;;;;;;9.25;7.15;;;9.80;99.90;;;;;;2092373;28;20672;-73
2023/04/30 00:06:17;;;;;;;9.38;8.15;;;9.80;99.90;;;;;;2093898;28;20388;-73
2023/04/30 00:07:18;;;;;;;7.72;6.93;;;9.80;99.90;;;;;;2092236;28;20063;-73
2023/04/30 00:08:18;;;;;;;8.98;6.97;;;9.70;99.90;;;;;;2095112;28;20494;-72
2023/04/30 00:09:19;;;;;;;8.32;7.55;;;9.70;99.90;;;;;;2094570;28;20025;-72
2023/04/30 00:10:19;;;;;;;10.15;8.00;;;9.70;99.90;;;;;;2091644;28;20032;-72
2023/04/30 00:11:20;;;;;;;8.40;7.50;;;9.70;99.90;;;;;;2091506;28;20070;-72
2023/04/30 00:12:20;;;;;;;10.18;6.90;;;9.70;99.90;;;;;;2093203;28;20024;-72
2023/04/30 00:13:21;;;;;;;10.15;8.15;;;9.60;99.90;;;;;;2092543;28;20021;-72
2023/04/30 00:14:21;;;;;;;7.28;6.45;;;9.70;99.90;;;;;;2094214;28;21048;-72
2023/04/30 00:15:22;;;;;;;8.77;6.10;;;9.70;99.90;;;;;;2095068;28;20024;-72
2023/04/30 00:16:23;;;;;;;7.18;5.85;;;9.70;99.90;;;;;;2092666;28;20047;-72
2023/04/30 00:17:23;;;;;;;7.85;6.47;;;9.60;99.90;;;;;;2092594;28;20029;-72
2023/04/30 00:18:24;;;;;;;7.30;6.50;;;9.60;99.90;;;;;;2092331;28;20495;-72
2023/04/30 00:19:24;;;;;;;6.78;6.15;;;9.60;99.90;;;;;;2093345;28;20032;-72
2023/04/30 00:20:25;;;;;;;7.55;6.47;;;9.60;99.90;;;;;;2091894;28;20558;-72
2023/04/30 00:21:26;;;;;;;8.00;7.18;;;9.60;99.90;;;;;;2090335;28;20443;-72
2023/04/30 00:22:27;;;;;;;6.47;5.88;;;9.60;99.90;;;;;;2094055;28;20039;-72
2023/04/30 00:23:27;;;;;;;6.40;5.80;;;9.60;99.90;;;;;;2093951;28;20028;-72
2023/04/30 00:24:28;;;;;;;7.50;6.68;;;9.60;99.90;;;;;;2092030;28;20391;-72
2023/04/30 00:25:28;;;;;;;6.82;6.13;;;9.60;99.90;;;;;;2094806;28;20027;-72
2023/04/30 00:26:29;;;;;;;7.95;6.78;;;9.50;99.90;;;;;;2093909;28;20110;-72
2023/04/30 00:27:30;;;;;;;7.68;5.95;;;9.50;99.90;;;;;;2095879;28;20118;-72
2023/04/30 00:28:31;;;;;;;8.07;7.22;;;9.50;99.90;;;;;;2093522;28;20029;-72
2023/04/30 00:29:31;;;;;;;8.20;7.20;;;9.50;99.90;;;;;;2091323;28;20048;-72
2023/04/30 00:30:32;;;;;;;6.47;5.45;;;9.50;99.90;;;;;;2093772;28;20028;-73
2023/04/30 00:31:32;;;;;;;7.10;5.60;;;9.50;99.90;;;;;;2092402;28;20037;-73
2023/04/30 00:32:33;;;;;;;6.00;5.40;;;9.50;99.90;;;;;;2092545;28;20032;-73
2023/04/30 00:33:34;;;;;;;6.95;5.38;;;9.40;99.90;;;;;;2094456;28;20115;-73
2023/04/30 00:34:34;;;;;;;8.23;6.75;;;9.40;99.90;;;;;;2091909;28;20031;-73
2023/04/30 00:35:35;;;;;;;8.75;7.55;;;9.40;99.90;;;;;;2094556;28;20073;-72
2023/04/30 00:36:36;;;;;;;13.57;6.25;;;9.40;99.90;;;;;;2093575;28;20468;-72
2023/04/30 00:37:36;;;;;;;7.72;5.88;;;9.40;99.90;;;;;;2093097;28;20016;-72
2023/04/30 00:38:37;;;;;;;8.15;6.35;;;9.40;99.90;;;;;;2093992;28;20032;-72
2023/04/30 00:39:37;;;;;;;8.15;6.70;;;9.30;99.90;;;;;;2092311;28;20421;-72
2023/04/30 00:40:40;;;;;;;7.75;6.95;;;9.30;99.90;;;;;;2089523;28;20060;-72
2023/04/30 00:41:41;;;;;;;7.80;7.03;;;9.30;99.90;;;;;;2094527;28;20016;-72
2023/04/30 00:42:41;;;;;;;7.43;5.50;;;9.30;99.90;;;;;;2093304;28;20032;-72
2023/04/30 00:43:42;;;;;;;6.90;6.18;;;9.30;99.90;;;;;;2093436;28;20098;-72
2023/04/30 00:44:42;;;;;;;8.15;6.40;;;9.30;99.90;;;;;;2096018;28;20051;-72
2023/04/30 00:45:43;;;;;;;6.93;6.22;;;9.20;99.90;;;;;;2092421;28;20036;-72
2023/04/30 00:46:43;;;;;;;7.82;6.30;;;9.20;99.90;;;;;;2094115;28;20020;-72
2023/04/30 00:47:44;;;;;;;7.10;6.00;;;9.20;99.90;;;;;;2093483;28;20032;-72
2023/04/30 00:48:45;;;;;;;7.57;6.05;;;9.20;99.90;;;;;;2092411;28;20032;-72
2023/04/30 00:49:46;;;;;;;8.30;6.60;;;9.20;99.90;;;;;;2093200;28;20029;-72
2023/04/30 00:50:46;;;;;;;6.75;5.43;;;9.20;99.90;;;;;;2092280;28;20032;-72
2023/04/30 00:51:47;;;;;;;6.78;6.13;;;9.20;99.90;;;;;;2093214;28;20036;-72
2023/04/30 00:52:47;;;;;;;7.80;6.82;;;9.20;99.90;;;;;;2092681;28;20021;-72
2023/04/30 00:53:48;;;;;;;7.10;6.20;;;9.10;99.90;;;;;;2092531;28;20012;-72
2023/04/30 00:54:49;;;;;;;9.63;6.68;;;9.10;99.90;;;;;;2093734;28;20058;-72
2023/04/30 00:55:50;;;;;;;6.93;5.80;;;9.10;99.90;;;;;;2093322;28;20067;-72
2023/04/30 00:56:51;;;;;;;7.63;6.88;;;9.10;99.90;;;;;;2091603;28;20021;-72
2023/04/30 00:57:52;;;;;;;6.15;5.55;;;9.10;99.90;;;;;;2093605;28;20020;-72
2023/04/30 00:58:56;;;;;;;7.03;6.22;;;9.00;99.90;;;;;;2092492;28;20029;-72
2023/04/30 00:59:56;;;;;;;6.05;5.45;;;9.00;99.90;;;;;;2092276;28;20020;-72
2023/04/30 01:00:57;;;;;;;6.97;5.53;;;9.00;99.90;;;;;;2094876;28;20021;-72
2023/04/30 01:01:58;;;;;;;7.20;6.22;;;9.00;99.90;;;;;;2095193;28;20028;-72
2023/04/30 01:02:59;;;;;;;7.05;6.35;;;9.00;99.90;;;;;;2092451;28;20119;-72
2023/04/30 01:04:00;;;;;;;6.85;6.25;;;9.00;99.90;;;;;;2094207;28;20028;-72
2023/04/30 01:05:02;;;;;;;7.40;6.57;;;9.00;99.90;;;;;;2094237;28;20025;-72
2023/04/30 01:06:03;;;;;;;8.43;6.20;;;8.90;99.90;;;;;;2093656;28;20025;-72
2023/04/30 01:07:04;;;;;;;7.97;6.50;;;8.90;99.90;;;;;;2093084;28;20060;-72
2023/04/30 01:08:05;;;;;;;6.18;5.57;;;8.90;99.90;;;;;;2094370;28;20033;-72
2023/04/30 01:09:06;;;;;;;8.00;5.90;;;8.90;99.90;;;;;;2093166;28;20103;-72
2023/04/30 01:10:07;;;;;;;8.02;6.05;;;8.90;99.90;;;;;;2094335;28;20024;-72
2023/04/30 01:11:33;;;;;;;6.28;5.68;;;8.90;99.90;;;;;;2092162;28;20040;-72
2023/04/30 01:12:39;;;;;;;6.18;5.57;;;8.80;99.90;;;;;;2091640;28;20032;-72
2023/04/30 01:13:53;;;;;;;8.02;6.20;;;8.80;99.90;;;;;;2091840;28;20027;-72
2023/04/30 01:15:08;;;;;;;6.20;5.65;;;8.80;99.90;;;;;;2092987;28;20032;-72
2023/04/30 01:16:18;;;;;;;8.20;6.25;;;8.70;99.90;;;;;;2090871;28;20039;-72
2023/04/30 01:17:32;;;;;;;6.60;5.85;;;8.70;99.90;;;;;;2093074;28;20020;-72
2023/04/30 01:18:43;;;;;;;7.30;6.60;;;8.70;99.90;;;;;;2092363;28;20755;-72
2023/04/30 01:19:45;;;;;;;10.45;6.38;;;8.70;99.90;;;;;;2092532;28;20028;-72
2023/04/30 01:20:53;;;;;;;7.65;6.55;;;8.60;99.90;;;;;;2090660;28;20037;-73
2023/04/30 01:21:56;;;;;;;5.95;5.45;;;8.60;99.90;;;;;;2091697;28;20024;-72
2023/04/30 01:23:10;;;;;;;7.13;6.38;;;8.60;99.90;;;;;;2088785;28;20028;-72
2023/04/30 01:24:49;;;;;;;8.52;5.70;;;8.60;99.90;;;;;;2091013;28;20028;-72
2023/04/30 01:26:09;;;;;;;7.55;6.18;;;8.60;99.90;;;;;;2091331;28;20028;-72
2023/04/30 01:27:46;;;;;;;6.93;6.22;;;8.50;99.90;;;;;;2092656;28;20037;-72
2023/04/30 01:28:52;;;;;;;7.03;6.32;;;8.50;99.90;;;;;;2093581;28;20791;-72
2023/04/30 01:29:54;;;;;;;6.93;6.25;;;8.40;99.90;;;;;;2093350;28;20036;-72
2023/04/30 01:30:55;;;;;;;8.57;6.68;;;8.40;99.90;;;;;;2094238;28;20388;-72
2023/04/30 01:31:55;;;;;;;8.38;6.65;;;8.40;99.90;;;;;;2093248;28;20029;-72
2023/04/30 01:32:56;;;;;;;7.32;6.63;;;8.40;99.90;;;;;;2092099;28;20041;-72
2023/04/30 01:33:57;;;;;;;10.60;7.05;;;8.40;99.90;;;;;;2091193;28;20017;-72
2023/04/30 01:34:57;;;;;;;7.20;6.50;;;8.40;99.90;;;;;;2092712;28;20028;-72
2023/04/30 01:36:07;;;;;;;6.82;6.13;;;8.40;99.90;;;;;;2092235;28;20099;-72
2023/04/30 01:37:14;;;;;;;8.48;6.57;;;8.40;99.90;;;;;;2092597;28;20115;-72
2023/04/30 01:38:48;;;;;;;7.32;6.43;;;8.30;99.90;;;;;;2091972;28;20460;-72
2023/04/30 01:39:57;;;;;;;7.30;6.45;;;8.30;99.90;;;;;;2096700;28;20024;-72
2023/04/30 01:41:08;;;;;;;6.20;5.60;;;8.30;99.90;;;;;;2096474;28;20062;-72
2023/04/30 01:42:18;;;;;;;7.88;6.00;;;8.30;99.90;;;;;;2092799;28;20429;-72
2023/04/30 01:43:32;;;;;;;7.28;6.07;;;8.20;99.90;;;;;;2092991;28;20031;-72
2023/04/30 01:45:05;;;;;;;6.97;6.28;;;8.20;99.90;;;;;;2091879;28;20043;-72
2023/04/30 01:46:15;;;;;;;7.03;6.35;;;8.20;99.90;;;;;;2091999;28;20538;-72
2023/04/30 01:47:35;;;;;;;8.57;5.95;;;8.20;99.90;;;;;;2093216;28;20021;-72
2023/04/30 01:48:45;;;;;;;;;;;8.20;99.90;;;;;;2095072;28;20122;-72
2023/04/30 01:50:04;;;;;;;8.75;7.10;;;8.00;99.90;;;;;;2091419;28;19974;-72
2023/04/30 01:51:29;;;;;;;6.57;5.95;;;8.00;99.90;;;;;;2093646;28;20017;-72
2023/04/30 01:52:49;;;;;;;9.55;6.80;;;8.10;99.90;;;;;;2093156;28;20526;-72
2023/04/30 01:53:52;;;;;;;6.05;5.55;;;8.00;99.90;;;;;;2092970;28;20095;-72
2023/04/30 01:55:04;;;;;;;7.10;5.68;;;8.00;99.90;;;;;;2092624;28;20025;-72
2023/04/30 01:56:07;;;;;;;7.70;6.90;;;8.00;99.90;;;;;;2092892;28;20028;-72
2023/04/30 01:57:25;;;;;;;6.47;5.70;;;8.00;99.90;;;;;;2092514;28;20036;-72
2023/04/30 01:58:26;;;;;;;6.78;6.03;;;8.00;99.90;;;;;;2093133;28;20092;-72
2023/04/30 01:59:28;;;;;;;7.22;6.10;;;7.90;99.90;;;;;;2092577;28;20124;-72
2023/04/30 02:00:31;;;;;;;8.38;7.32;;;7.90;99.90;;;;;;2093375;28;20020;-72
2023/04/30 02:01:32;;;;;;;7.72;6.85;;;7.90;99.90;;;;;;2093085;28;20127;-72
2023/04/30 02:02:33;;;;;;;7.20;6.28;;;7.90;99.90;;;;;;2092168;28;20028;-72
2023/04/30 02:03:33;;;;;;;8.05;6.85;;;8.00;99.90;;;;;;2092323;28;20143;-72
2023/04/30 02:04:35;;;;;;;8.70;7.22;;;7.90;99.90;;;;;;2091836;28;20035;-72
2023/04/30 02:05:35;;;;;;;6.97;6.28;;;7.90;99.90;;;;;;2088931;28;20032;-72
2023/04/30 02:06:36;;;;;;;7.10;6.35;;;7.90;99.90;;;;;;2093805;28;20031;-72
2023/04/30 02:07:42;;;;;;;6.40;5.80;;;7.90;99.90;;;;;;2091987;28;20151;-72
2023/04/30 02:08:43;;;;;;;9.45;6.55;;;7.90;99.90;;;;;;2090834;28;20040;-72
2023/04/30 02:09:43;;;;;;;8.23;6.20;;;7.90;99.90;;;;;;2091775;28;20111;-72
2023/04/30 02:10:44;;;;;;;7.22;6.40;;;7.90;99.90;;;;;;2092517;28;20028;-72
2023/04/30 02:11:44;;;;;;;7.18;6.50;;;7.80;99.90;;;;;;2093730;28;20021;-72
2023/04/30 02:12:45;;;;;;;7.80;6.15;;;7.80;99.90;;;;;;2093969;28;20051;-72
2023/04/30 02:13:46;;;;;;;7.43;6.07;;;7.80;99.90;;;;;;2091784;28;20029;-72
2023/04/30 02:14:46;;;;;;;6.97;6.22;;;7.80;99.90;;;;;;2093133;28;20503;-72
2023/04/30 02:15:47;;;;;;;6.82;6.22;;;7.80;99.90;;;;;;2093289;28;20099;-72
2023/04/30 02:16:48;;;;;;;7.80;6.85;;;7.80;99.90;;;;;;2093829;28;20021;-72
2023/04/30 02:17:48;;;;;;;7.78;6.97;;;7.80;99.90;;;;;;2091939;28;20031;-72
2023/04/30 02:18:49;;;;;;;7.57;6.40;;;7.80;99.90;;;;;;2084713;28;20461;-72
2023/04/30 02:19:50;;;;;;;9.85;7.63;;;7.70;99.90;;;;;;2078407;28;20032;-72
2023/04/30 02:20:50;;;;;;;8.88;6.55;;;7.70;99.90;;;;;;2092204;28;20090;-72
2023/04/30 02:21:51;;;;;;;9.38;6.85;;;7.70;99.90;;;;;;2092068;28;20769;-72
2023/04/30 02:22:51;;;;;;;7.35;6.53;;;7.70;99.90;;;;;;2093328;28;20451;-72
2023/04/30 02:23:52;;;;;;;8.00;7.15;;;7.70;99.90;;;;;;2091462;28;20396;-72
2023/04/30 02:24:54;;;;;;;8.40;6.30;;;7.70;99.90;;;;;;2092652;28;20028;-72
2023/04/30 02:25:55;;;;;;;10.75;7.65;;;7.70;99.90;;;;;;2092623;28;20579;-72
2023/04/30 02:26:55;;;;;;;7.57;6.38;;;7.70;99.90;;;;;;2093817;28;20503;-72
2023/04/30 02:27:56;;;;;;;11.20;7.43;;;7.70;99.90;;;;;;2092412;28;20024;-72
2023/04/30 02:28:56;;;;;;;7.40;6.57;;;7.60;99.90;;;;;;2090981;28;20032;-72
2023/04/30 02:29:57;;;;;;;7.80;7.00;;;7.60;99.90;;;;;;2091055;28;20119;-72
2023/04/30 02:30:58;;;;;;;8.10;6.75;;;7.60;99.90;;;;;;2089441;28;20021;-72
2023/04/30 02:31:59;;;;;;;7.03;6.20;;;7.60;99.90;;;;;;2089992;28;20096;-72
2023/04/30 02:32:59;;;;;;;7.63;6.03;;;7.60;99.90;;;;;;2090595;28;20032;-72
2023/04/30 02:34:00;;;;;;;8.13;5.82;;;7.60;99.90;;;;;;2089286;28;20020;-72
2023/04/30 02:35:00;;;;;;;9.88;6.82;;;7.60;99.90;;;;;;2091124;28;20102;-72
2023/04/30 02:36:01;;;;;;;6.95;6.25;;;7.50;99.90;;;;;;2089397;28;20036;-72
2023/04/30 02:37:02;;;;;;;7.95;7.15;;;7.50;99.90;;;;;;2090005;28;20617;-72
2023/04/30 02:38:02;;;;;;;7.65;6.95;;;7.50;99.90;;;;;;2091178;28;20769;-72
2023/04/30 02:39:03;;;;;;;6.50;5.90;;;7.50;99.90;;;;;;2092025;28;20668;-72
2023/04/30 02:40:05;;;;;;;9.70;7.15;;;7.50;99.90;;;;;;2090957;28;20016;-72
2023/04/30 02:41:06;;;;;;;7.43;6.18;;;7.50;99.90;;;;;;2091298;28;20021;-72
2023/04/30 02:42:06;;;;;;;8.75;6.82;;;7.50;99.90;;;;;;2092243;28;20029;-72
2023/04/30 02:43:07;;;;;;;9.23;7.10;;;7.50;99.90;;;;;;2092418;28;20029;-72
2023/04/30 02:44:08;;;;;;;7.80;6.20;;;7.50;99.90;;;;;;2093218;28;20021;-72
2023/04/30 02:45:09;;;;;;;7.50;6.80;;;7.50;99.90;;;;;;2092886;28;20762;-72
2023/04/30 02:46:09;;;;;;;7.10;6.50;;;7.50;99.90;;;;;;2092652;28;20036;-72
2023/04/30 02:47:10;;;;;;;7.68;6.97;;;7.50;99.90;;;;;;2093736;28;20499;-72
2023/04/30 02:48:10;;;;;;;9.75;7.55;;;7.40;99.90;;;;;;2093531;28;20435;-72
2023/04/30 02:49:11;;;;;;;8.40;6.72;;;7.40;99.90;;;;;;2090777;28;20021;-72
2023/04/30 02:50:11;;;;;;;7.18;6.47;;;7.40;99.90;;;;;;2089747;28;20029;-72
2023/04/30 02:51:12;;;;;;;7.07;6.45;;;7.40;99.90;;;;;;2092286;28;20056;-72
2023/04/30 02:52:12;;;;;;;10.10;7.20;;;7.40;99.90;;;;;;2091327;28;20167;-72
2023/04/30 02:53:13;;;;;;;7.78;6.38;;;7.40;99.90;;;;;;2092504;28;20678;-72
2023/04/30 02:54:13;;;;;;;7.18;6.10;;;7.40;99.90;;;;;;2092210;28;20028;-72
2023/04/30 02:55:14;;;;;;;7.22;6.53;;;7.40;99.90;;;;;;2092452;28;20025;-72
2023/04/30 02:56:14;;;;;;;8.27;7.45;;;7.40;99.90;;;;;;2094693;28;20028;-72
2023/04/30 02:57:15;;;;;;;8.10;7.40;;;7.40;99.90;;;;;;2092186;28;20024;-72
2023/04/30 02:58:15;;;;;;;9.27;6.75;;;7.40;99.90;;;;;;2093735;28;20073;-72
2023/04/30 02:59:16;;;;;;;7.07;6.38;;;7.30;99.90;;;;;;2092958;28;20028;-72
2023/04/30 03:00:16;;;;;;;8.18;7.38;;;7.30;99.90;;;;;;2092031;28;20039;-72
2023/04/30 03:01:17;;;;;;;6.65;6.05;;;7.30;99.90;;;;;;2092568;28;20048;-72
2023/04/30 03:02:20;;;;;;;7.55;6.85;;;7.30;99.90;;;;;;2091074;28;21024;-72
2023/04/30 03:03:20;;;;;;;7.90;7.13;;;7.30;99.90;;;;;;2090955;28;20021;-72
2023/04/30 03:04:21;;;;;;;7.90;6.80;;;7.30;99.90;;;;;;2090291;28;20480;-72
2023/04/30 03:05:22;;;;;;;7.40;6.68;;;7.30;99.90;;;;;;2091028;28;20025;-72
2023/04/30 03:06:23;;;;;;;8.27;7.43;;;7.30;99.90;;;;;;2091808;28;20036;-72
2023/04/30 03:07:23;;;;;;;8.35;6.78;;;7.20;99.90;;;;;;2092682;28;20148;-72
2023/04/30 03:08:25;;;;;;;9.43;7.80;;;7.20;99.90;;;;;;2089304;28;20112;-72
2023/04/30 03:09:25;;;;;;;9.88;8.52;;;7.20;99.90;;;;;;2091475;28;20040;-72
2023/04/30 03:10:26;;;;;;;7.80;7.00;;;7.20;99.90;;;;;;2092412;28;20108;-72
2023/04/30 03:11:26;;;;;;;8.85;7.85;;;7.20;99.90;;;;;;2093879;28;20109;-72
2023/04/30 03:12:27;;;;;;;11.10;7.88;;;7.20;99.90;;;;;;2093816;28;20070;-72
2023/04/30 03:13:28;;;;;;;7.28;6.57;;;7.20;99.90;;;;;;2090474;28;20518;-72
2023/04/30 03:14:29;;;;;;;8.23;6.63;;;7.20;99.90;;;;;;2090954;28;20737;-72
2023/04/30 03:15:32;;;;;;;9.25;7.72;;;7.20;99.90;;;;;;2093306;28;20419;-72
2023/04/30 03:16:32;;;;;;;7.88;7.03;;;7.20;99.90;;;;;;2092276;28;20523;-72
2023/04/30 03:17:33;;;;;;;9.20;7.45;;;7.20;99.90;;;;;;2093608;28;20470;-72
2023/04/30 03:18:33;;;;;;;7.57;6.32;;;7.20;99.90;;;;;;2090618;28;20079;-72
2023/04/30 03:19:34;;;;;;;8.45;6.88;;;7.10;99.90;;;;;;2092618;28;20103;-72
2023/04/30 03:20:34;;;;;;;6.75;6.15;;;7.20;99.90;;;;;;2093219;28;20029;-72
2023/04/30 03:21:35;;;;;;;6.45;5.75;;;7.10;99.90;;;;;;2090379;28;20032;-72
2023/04/30 03:22:35;;;;;;;9.05;6.78;;;7.10;99.90;;;;;;2094127;28;20472;-72
2023/04/30 03:23:36;;;;;;;7.90;7.13;;;7.10;99.90;;;;;;2093923;28;20036;-72
2023/04/30 03:24:37;;;;;;;8.18;7.38;;;7.10;99.90;;;;;;2090794;28;20104;-72
2023/04/30 03:25:37;;;;;;;6.78;6.05;;;7.10;99.90;;;;;;2094339;28;20024;-72
2023/04/30 03:26:38;;;;;;;10.35;7.18;;;7.10;99.90;;;;;;2094990;28;20077;-72
2023/04/30 03:27:38;;;;;;;6.88;6.00;;;7.10;99.90;;;;;;2094106;28;20024;-72
2023/04/30 03:28:39;;;;;;;6.43;5.93;;;7.10;99.90;;;;;;2094676;28;20032;-72
2023/04/30 03:29:39;;;;;;;7.00;6.40;;;7.10;99.90;;;;;;2092605;28;20110;-72
2023/04/30 03:30:40;;;;;;;8.77;6.93;;;7.00;99.90;;;;;;2092390;28;20033;-72
2023/04/30 03:31:40;;;;;;;6.82;6.22;;;7.00;99.90;;;;;;2093443;28;20126;-72
2023/04/30 03:32:41;;;;;;;8.13;7.35;;;7.00;99.90;;;;;;2092432;28;20539;-72
2023/04/30 03:33:42;;;;;;;7.82;7.03;;;7.00;99.90;;;;;;2094071;28;20139;-72
2023/04/30 03:34:42;;;;;;;6.82;6.22;;;7.00;99.90;;;;;;2094329;28;20021;-72
2023/04/30 03:35:43;;;;;;;7.82;7.07;;;7.00;99.90;;;;;;2093727;28;20021;-72
2023/04/30 03:36:43;;;;;;;10.40;7.10;;;7.00;99.90;;;;;;2093891;28;20099;-72
2023/04/30 03:37:44;;;;;;;6.60;5.88;;;7.00;99.90;;;;;;2094911;28;20498;-72
2023/04/30 03:38:44;;;;;;;7.20;6.40;;;7.00;99.90;;;;;;2093385;28;20051;-72
2023/04/30 03:39:45;;;;;;;7.43;6.55;;;7.00;99.90;;;;;;2092868;28;20095;-72
2023/04/30 03:40:45;;;;;;;7.85;7.05;;;7.00;99.90;;;;;;2091593;28;20025;-72
2023/04/30 03:41:46;;;;;;;6.90;6.20;;;6.90;99.90;;;;;;2092993;28;20031;-72
2023/04/30 03:42:46;;;;;;;7.88;6.45;;;6.90;99.90;;;;;;2093399;28;20083;-72
2023/04/30 03:43:47;;;;;;;6.75;6.00;;;6.90;99.90;;;;;;2092969;28;20458;-72
2023/04/30 03:44:47;;;;;;;8.75;7.65;;;6.90;99.90;;;;;;2092823;28;20052;-72
2023/04/30 03:45:48;;;;;;;9.63;7.60;;;6.90;99.90;;;;;;2094639;28;20025;-72
2023/04/30 03:46:49;;;;;;;6.85;6.25;;;6.90;99.90;;;;;;2094845;28;20073;-72
2023/04/30 03:47:50;;;;;;;7.13;6.45;;;6.90;99.90;;;;;;2095445;28;20033;-72
2023/04/30 03:48:50;;;;;;;7.97;7.00;;;6.90;99.90;;;;;;2095185;28;20025;-72
2023/04/30 03:49:53;;;;;;;10.05;7.25;;;6.90;99.90;;;;;;2093391;28;20436;-72
2023/04/30 03:50:54;;;;;;;7.95;6.43;;;6.90;99.90;;;;;;2094431;28;20035;-72
2023/04/30 03:51:55;;;;;;;7.60;6.25;;;6.90;99.90;;;;;;2093706;28;20025;-72
2023/04/30 03:52:55;;;;;;;9.32;7.53;;;6.90;99.90;;;;;;2093570;28;20100;-72
2023/04/30 03:53:56;;;;;;;9.50;6.90;;;6.90;99.90;;;;;;2091445;28;20397;-72
2023/04/30 03:54:56;;;;;;;8.65;7.75;;;6.90;99.90;;;;;;2093598;28;20722;-72
2023/04/30 03:55:57;;;;;;;7.57;6.85;;;6.90;99.90;;;;;;2091651;28;20020;-72
2023/04/30 03:56:59;;;;;;;6.78;6.05;;;6.80;99.90;;;;;;2092050;28;20370;-72
2023/04/30 03:57:59;;;;;;;8.43;7.38;;;6.90;99.90;;;;;;2091988;28;20013;-72
2023/04/30 03:59:00;;;;;;;8.55;5.80;;;6.90;99.90;;;;;;2092210;28;20029;-72
2023/04/30 04:00:06;;;;;;;8.63;7.03;;;6.90;99.90;;;;;;2091489;28;20443;-72
2023/04/30 04:01:07;;;;;;;9.27;8.23;;;6.90;99.90;;;;;;2094634;28;20021;-72
2023/04/30 04:02:07;;;;;;;7.22;6.45;;;6.80;99.90;;;;;;2092816;28;20021;-72
2023/04/30 04:03:08;;;;;;;8.27;7.47;;;6.80;99.90;;;;;;2090094;28;20017;-72
2023/04/30 04:04:08;;;;;;;7.65;6.75;;;6.80;99.90;;;;;;2091806;28;20655;-72
2023/04/30 04:05:09;;;;;;;8.45;6.43;;;6.80;99.90;;;;;;2091791;28;20033;-72
2023/04/30 04:06:10;;;;;;;8.32;6.97;;;6.80;99.90;;;;;;2090831;28;20434;-72
2023/04/30 04:07:10;;;;;;;7.50;6.35;;;6.80;99.90;;;;;;2094207;28;20027;-72
2023/04/30 04:08:11;;;;;;;6.70;6.10;;;6.80;99.90;;;;;;2092778;28;20069;-72
2023/04/30 04:09:11;;;;;;;7.15;6.38;;;6.80;99.90;;;;;;2093004;28;20033;-72
2023/04/30 04:10:12;;;;;;;8.52;7.00;;;6.80;99.90;;;;;;2090567;28;20422;-72
2023/04/30 04:11:13;;;;;;;7.30;6.47;;;6.80;99.90;;;;;;2090285;28;20032;-72
2023/04/30 04:12:13;;;;;;;7.80;6.70;;;6.80;99.90;;;;;;2093595;28;20120;-72
2023/04/30 04:13:14;;;;;;;8.63;7.80;;;6.80;99.90;;;;;;2092565;28;20388;-72
2023/04/30 04:14:15;;;;;;;8.30;7.50;;;6.70;99.90;;;;;;2092185;28;20369;-72
2023/04/30 04:15:15;;;;;;;8.55;7.30;;;6.70;99.90;;;;;;2093442;28;20027;-72
2023/04/30 04:16:16;;;;;;;7.88;7.10;;;6.80;99.90;;;;;;2093462;28;20089;-72
2023/04/30 04:17:17;;;;;;;7.45;6.35;;;6.80;99.90;;;;;;2091177;28;20147;-72
2023/04/30 04:18:17;;;;;;;8.82;7.18;;;6.70;99.90;;;;;;2090107;28;20021;-72
2023/04/30 04:19:18;;;;;;;8.48;6.63;;;6.80;99.90;;;;;;2093293;28;20823;-72
2023/04/30 04:20:18;;;;;;;7.35;6.65;;;6.80;99.90;;;;;;2092781;28;20028;-72
2023/04/30 04:21:20;;;;;;;8.20;7.40;;;6.80;99.90;;;;;;2092691;28;20542;-72
2023/04/30 04:22:20;;;;;;;7.15;6.32;;;6.80;99.90;;;;;;2092543;28;20048;-72
2023/04/30 04:23:21;;;;;;;8.43;7.57;;;6.70;99.90;;;;;;2091179;28;20060;-72
2023/04/30 04:24:25;;;;;;;8.30;7.35;;;6.70;99.90;;;;;;2094365;28;20029;-72
2023/04/30 04:25:26;;;;;;;10.10;7.70;;;6.80;99.90;;;;;;2091955;28;20028;-72
2023/04/30 04:26:27;;;;;;;7.65;7.00;;;6.80;99.90;;;;;;2092937;28;20078;-72
2023/04/30 04:27:28;;;;;;;8.80;7.90;;;6.80;99.90;;;;;;2093987;28;20029;-72
2023/04/30 04:28:28;;;;;;;10.52;7.70;;;6.80;99.90;;;;;;2092148;28;20029;-72
2023/04/30 04:29:29;;;;;;;7.55;6.82;;;6.70;99.90;;;;;;2095903;28;20020;-72
2023/04/30 04:30:30;;;;;;;7.65;6.95;;;6.70;99.90;;;;;;2093837;28;20024;-72
2023/04/30 04:31:31;;;;;;;8.55;6.90;;;6.70;99.90;;;;;;2094027;28;20067;-72
2023/04/30 04:32:31;;;;;;;9.52;8.48;;;6.70;99.90;;;;;;2092740;28;20508;-72
2023/04/30 04:33:32;;;;;;;7.55;6.65;;;6.70;99.90;;;;;;2095020;28;20103;-72
2023/04/30 04:34:32;;;;;;;9.25;7.60;;;6.70;99.90;;;;;;2094060;28;20075;-72
2023/04/30 04:35:33;;;;;;;7.53;6.82;;;6.80;99.90;;;;;;2092888;28;21148;-72
2023/04/30 04:36:34;;;;;;;7.88;7.07;;;6.80;99.90;;;;;;2092029;28;20029;-72
2023/04/30 04:37:35;;;;;;;8.50;7.60;;;6.80;99.90;;;;;;2093547;28;20021;-72
2023/04/30 04:38:35;;;;;;;8.25;7.45;;;6.80;99.90;;;;;;2093332;28;20021;-72
2023/04/30 04:39:36;;;;;;;8.55;7.57;;;6.80;99.90;;;;;;2094879;28;20132;-72
2023/04/30 04:40:37;;;;;;;9.07;8.07;;;6.80;99.90;;;;;;2092775;28;20021;-72
2023/04/30 04:41:37;;;;;;;10.77;8.30;;;6.80;99.90;;;;;;2091951;28;20380;-72
2023/04/30 04:42:38;;;;;;;10.23;9.18;;;6.80;99.90;;;;;;2094764;28;20030;-72
2023/04/30 04:43:38;;;;;;;8.20;7.40;;;6.80;99.90;;;;;;2092586;28;20028;-72
2023/04/30 04:44:40;;;;;;;10.00;8.60;;;6.80;99.90;;;;;;2093878;28;20035;-72
2023/04/30 04:45:40;;;;;;;9.68;8.68;;;6.80;99.90;;;;;;2095327;28;20021;-72
2023/04/30 04:46:43;;;;;;;13.07;10.55;;;6.80;99.90;;;;;;2093741;28;20024;-72
2023/04/30 04:47:43;;;;;;;13.23;11.05;;;6.80;99.90;;;;;;2095509;28;20027;-72
2023/04/30 04:48:44;;;;;;;10.10;8.98;;;6.80;99.90;;;;;;2094798;28;20040;-72
2023/04/30 04:49:44;;;;;;;9.13;8.23;;;6.80;99.90;;;;;;2092419;28;20460;-72
2023/04/30 04:50:45;;;;;;;10.80;8.82;;;6.80;99.90;;;;;;2094292;28;20648;-72
2023/04/30 04:51:46;;;;;;;8.63;7.47;;;6.90;99.90;;;;;;2092525;28;20044;-72
2023/04/30 04:52:46;;;;;;;13.20;11.00;;;6.90;99.90;;;;;;2093381;28;20559;-72
2023/04/30 04:53:47;;;;;;;11.95;10.57;;;6.90;99.90;;;;;;2092406;28;20033;-73
2023/04/30 04:54:47;;;;;;;11.10;9.85;;;6.90;99.90;;;;;;2091116;28;20028;-72
2023/04/30 04:55:48;;;;;;;12.88;11.20;;;6.90;99.90;;;;;;2093083;28;20074;-72
2023/04/30 04:56:48;;;;;;;14.35;11.55;;;6.90;99.90;;;;;;2093117;28;20094;-72
2023/04/30 04:57:49;;;;;;;13.32;11.93;;;6.90;99.90;;;;;;2092781;28;20104;-72
2023/04/30 04:58:49;;;;;;;14.00;12.18;;;7.00;99.90;;;;;;2092820;28;20050;-72
2023/04/30 04:59:50;;;;;;;15.75;13.25;;;7.00;99.90;;;;;;2092667;28;20040;-72
2023/04/30 05:00:50;;;;;;;14.93;12.60;;;7.00;99.90;;;;;;2092797;28;20637;-72
2023/04/30 05:01:51;;;;;;;15.43;13.73;;;7.00;99.90;;;;;;2091368;28;20025;-72
2023/04/30 05:02:52;;;;;;;17.80;13.38;;;7.00;99.90;;;;;;2090903;28;20029;-72
2023/04/30 05:03:53;;;;;;;15.10;13.45;;;7.10;99.90;;;;;;2093768;28;20024;-72
2023/04/30 05:04:53;;;;;;;18.65;13.63;;;7.10;99.90;;;;;;2092151;28;20017;-72
2023/04/30 05:05:54;;;;;;;13.60;12.25;;;7.10;99.90;;;;;;2091207;28;20075;-72
2023/04/30 05:06:54;;;;;;;15.27;13.35;;;7.20;99.90;;;;;;2091573;28;20082;-72
2023/04/30 05:07:55;;;;;;;20.15;14.57;;;7.20;99.90;;;;;;2092987;28;20020;-72
2023/04/30 05:08:56;;;;;;;27.90;23.10;;;7.20;99.90;;;;;;2092347;28;20027;-72
2023/04/30 05:09:56;;;;;;;27.05;23.17;;;7.20;99.90;;;;;;2092850;28;20029;-72
2023/04/30 05:10:57;;;;;;;25.58;22.10;;;7.20;99.90;;;;;;2093298;28;20597;-72
2023/04/30 05:11:57;;;;;;;21.60;18.58;;;7.30;99.90;;;;;;2093619;28;20635;-72
2023/04/30 05:12:58;;;;;;;20.05;17.77;;;7.30;99.90;;;;;;2092493;28;20032;-73
2023/04/30 05:13:58;;;;;;;22.15;18.85;;;7.30;99.90;;;;;;2094298;28;20025;-72
2023/04/30 05:14:59;;;;;;;22.83;18.30;;;7.40;99.90;;;;;;2094184;28;20063;-72
2023/04/30 05:16:00;;;;;;;21.25;17.35;;;7.40;99.90;;;;;;2092555;28;20020;-72
2023/04/30 05:17:00;;;;;;;19.90;17.73;;;7.50;99.90;;;;;;2092179;28;20037;-73
2023/04/30 05:18:01;;;;;;;22.08;17.83;;;7.50;99.90;;;;;;2091264;28;20107;-72
2023/04/30 05:19:01;;;;;;;23.02;18.27;;;7.60;99.90;;;;;;2092231;28;20032;-72
2023/04/30 05:20:02;;;;;;;20.83;17.08;;;7.60;99.90;;;;;;2091187;28;20020;-72
2023/04/30 05:21:03;;;;;;;22.52;16.45;;;7.70;99.90;;;;;;2090412;28;20021;-72
2023/04/30 05:22:04;;;;;;;20.70;18.23;;;7.70;99.90;;;;;;2094104;28;20574;-72
2023/04/30 05:23:04;;;;;;;21.92;18.13;;;7.80;99.90;;;;;;2092711;28;20144;-72
2023/04/30 05:24:05;;;;;;;21.17;18.05;;;7.90;99.90;;;;;;2092510;28;20017;-72
2023/04/30 05:25:06;;;;;;;20.63;17.38;;;8.00;99.90;;;;;;2092083;28;20020;-73
2023/04/30 05:26:06;;;;;;;19.92;16.33;;;8.00;99.90;;;;;;2095226;28;20028;-73
2023/04/30 05:27:08;;;;;;;18.35;15.13;;;8.10;99.90;;;;;;2094900;28;20028;-73